Pagrindinis puslapis
METAR-TAF:

METAR-TAF

Oro uostai :

Gran Kanarija, Ispanija

platuma: 27-56N, ilguma: 015-23W, Aukštis: 23 m

Dabartinis oras

Ataskaita buvo paskelbta 39 minutes, ne 22:30 UTC
Vėjas 9 kt iš Šiaurės
Temperatūra 23°C
Drėgmė 73%
Slėgis 1017 hPa
Matomumas 10 km arba daugiau
Mažai debesys ne aukštis 2000 ft

METAR: GCLP 202230Z 36009KT 9999 FEW020 23/18 Q1017 NOSIG

Laikas: 00:09 (23:09 UTC)

Prognozė

Ataskaita buvo paskelbta 3 valandos ir 9 minutes, ne 20:00 UTC
Prognozė galioja nuo 20 metu 21 UTC su 21 metu 21 UTC
Vėjas 12 kt iš Šiaurės
Matomumas 10 km arba daugiau
Mažai debesys ne aukštis 2500 ft

TAF: GCLP 202000Z 2021/2121 35012KT 9999 FEW025 TX27/2113Z TN21/2105Z

Orai ataskaitas ir orų prognozės (METAR, TAF).

turimą stotys yra geltonos ir raudonos taškus žemėlapyje.

Perkelti pele per norėdami pamatyti stoties vardą.

Tada spustelėkite, norėdami matyti oro stebėjimo ir prognozės.

Norėdami pakeisti žemėlapį: spustelėkite ant žalios mygtukų su juodo kryžiaus žemyn,; žalią mygtuką su brūkšneliu, jei norite nutolinti; arba žalių rodyklių gretimoms žemėlapius.


METAR-TAF: